Time;durP1;ratioP1;P1;durP2;ratioP2;P2;SDS_P1;SDS_P2;PMS_P1;PMS_P2;Temp;Humidity;BMP_temperature;BMP_pressure;BME280_temperature;BME280_humidity;BME280_pressure;Samples;Min_cycle;Max_cycle;Signal;HPM_P1;HPM_P2
2021/03/07 00:00:47;;;;;;;10.10;6.30;;;;;;;-6.10;75.25;100314.11;1754254;81;21066;-63
2021/03/07 00:03:15;;;;;;;12.78;7.60;;;;;;;-6.03;75.12;100309.75;1754343;81;21053;-63
2021/03/07 00:05:42;;;;;;;12.40;7.17;;;;;;;-6.00;75.05;100304.81;1754314;81;21121;-63
2021/03/07 00:08:10;;;;;;;12.37;7.95;;;;;;;-5.97;75.05;100301.95;1754232;81;21462;-63
2021/03/07 00:10:39;;;;;;;10.53;6.83;;;;;;;-5.94;75.14;100294.48;1754235;81;21168;-63
2021/03/07 00:13:06;;;;;;;11.25;7.42;;;;;;;-5.87;75.13;100287.09;1754256;81;21069;-63
2021/03/07 00:15:34;;;;;;;11.33;6.47;;;;;;;-5.84;74.99;100275.80;1754313;81;21045;-63
2021/03/07 00:18:02;;;;;;;11.45;7.30;;;;;;;-5.85;74.96;100281.27;1754286;81;21112;-63
2021/03/07 00:20:30;;;;;;;11.12;7.42;;;;;;;-5.85;74.92;100272.41;1754378;81;22056;-63
2021/03/07 00:22:58;;;;;;;11.48;7.17;;;;;;;-5.86;74.81;100266.02;1754194;81;21999;-63
2021/03/07 00:25:25;;;;;;;12.30;7.75;;;;;;;-5.88;74.86;100267.22;1754256;81;21509;-63
2021/03/07 00:27:53;;;;;;;11.75;7.50;;;;;;;-5.90;74.87;100263.80;1754212;81;21065;-63
2021/03/07 00:30:21;;;;;;;12.58;7.40;;;;;;;-5.91;74.96;100263.34;1754260;81;21140;-63
2021/03/07 00:32:50;;;;;;;11.48;7.33;;;;;;;-5.89;75.11;100259.59;1754188;81;21124;-63
2021/03/07 00:35:18;;;;;;;11.53;7.45;;;;;;;-5.83;75.19;100259.80;1754194;81;21172;-63
2021/03/07 00:37:46;;;;;;;12.53;7.47;;;;;;;-5.79;74.94;100254.02;1754103;81;21065;-63
2021/03/07 00:40:14;;;;;;;11.12;7.58;;;;;;;-5.79;74.80;100252.34;1754241;81;21069;-63
2021/03/07 00:42:48;;;;;;;12.58;7.72;;;;;;;-5.77;74.77;100253.66;1754290;81;21271;-63
2021/03/07 00:45:18;;;;;;;12.98;8.03;;;;;;;-5.78;74.61;100254.06;1726898;81;22390;-63
2021/03/07 00:47:46;;;;;;;11.85;7.90;;;;;;;-5.80;74.53;100242.19;1754183;81;21073;-63
2021/03/07 00:50:21;;;;;;;10.60;7.53;;;;;;;-5.79;74.64;100237.14;1754320;81;21065;-63
2021/03/07 00:52:49;;;;;;;11.03;7.05;;;;;;;-5.75;74.59;100231.38;1754334;81;21184;-63
2021/03/07 00:55:16;;;;;;;12.33;7.70;;;;;;;-5.73;74.41;100234.83;1754242;81;21136;-62
2021/03/07 00:57:44;;;;;;;12.85;8.00;;;;;;;-5.77;74.31;100225.39;1754266;80;23523;-63
2021/03/07 01:00:16;;;;;;;10.08;6.70;;;;;;;-5.77;74.42;100226.66;1754181;81;21149;-62
2021/03/07 01:02:44;;;;;;;10.70;7.47;;;;;;;-5.78;74.19;100222.40;1753671;81;21081;-62
2021/03/07 01:05:13;;;;;;;11.97;7.25;;;;;;;-5.84;74.18;100215.88;1754267;81;21152;-62
2021/03/07 01:07:41;;;;;;;13.80;8.10;;;;;;;-5.87;74.28;100217.02;1754211;81;21117;-62
2021/03/07 01:10:19;;;;;;;11.50;7.22;;;;;;;-5.87;74.37;100209.42;1754241;81;21429;-63
2021/03/07 01:12:48;;;;;;;11.33;7.40;;;;;;;-5.88;74.45;100201.36;1754208;81;21100;-62
2021/03/07 01:15:21;;;;;;;11.73;7.12;;;;;;;-5.88;74.45;100195.03;1754237;81;21062;-62
2021/03/07 01:17:50;;;;;;;13.00;7.55;;;;;;;-5.86;74.61;100201.42;1754274;81;21623;-63
2021/03/07 01:20:18;;;;;;;12.88;7.75;;;;;;;-5.84;74.46;100194.34;1754328;81;21505;-62
2021/03/07 01:22:48;;;;;;;12.93;7.58;;;;;;;-5.84;74.35;100200.67;1710397;83;21458;-62
2021/03/07 01:25:19;;;;;;;11.45;7.55;;;;;;;-5.82;74.39;100194.39;1754185;81;21089;-62
2021/03/07 01:27:48;;;;;;;12.25;7.83;;;;;;;-5.81;74.33;100188.52;1754230;81;21055;-62
2021/03/07 01:30:18;;;;;;;12.93;8.08;;;;;;;-5.80;74.42;100184.78;1754235;81;21070;-62
2021/03/07 01:32:46;;;;;;;11.15;7.42;;;;;;;-5.78;74.35;100187.33;1754222;81;21152;-62
2021/03/07 01:35:15;;;;;;;13.62;8.35;;;;;;;-5.77;74.42;100191.59;1754248;81;21393;-62
2021/03/07 01:37:42;;;;;;;14.68;8.25;;;;;;;-5.73;74.43;100191.77;1754023;81;21207;-62
2021/03/07 01:40:14;;;;;;;11.78;8.45;;;;;;;-5.67;74.39;100191.12;1754247;81;21136;-62
2021/03/07 01:42:50;;;;;;;14.10;7.58;;;;;;;-5.66;74.22;100181.45;1754610;81;21572;-62
2021/03/07 01:45:27;;;;;;;13.43;8.78;;;;;;;-5.71;74.03;100180.41;1754267;81;21065;-62
2021/03/07 01:47:57;;;;;;;13.85;7.95;;;;;;;-5.77;74.29;100177.25;1754350;81;21351;-62
2021/03/07 01:50:27;;;;;;;11.70;7.92;;;;;;;-5.79;74.34;100174.20;1754398;81;21085;-62
2021/03/07 01:52:55;;;;;;;13.83;7.92;;;;;;;-5.83;74.53;100168.20;1754423;81;21486;-62
2021/03/07 01:55:31;;;;;;;13.78;8.80;;;;;;;-5.83;74.59;100166.94;1754333;81;21125;-62
2021/03/07 01:58:23;;;;;;;10.65;7.80;;;;;;;-5.81;74.74;100165.31;1754429;81;21116;-62
2021/03/07 02:00:50;;;;;;;14.18;7.92;;;;;;;-5.80;74.65;100161.11;1754402;81;21430;-62
2021/03/07 02:03:18;;;;;;;12.93;7.58;;;;;;;-5.76;74.77;100154.91;1726849;81;21101;-62
2021/03/07 02:05:46;;;;;;;12.13;7.87;;;;;;;-5.73;74.78;100159.23;1754424;81;21056;-62
2021/03/07 02:08:15;;;;;;;10.95;7.65;;;;;;;-5.74;74.73;100148.23;1754407;81;21152;-62
2021/03/07 02:10:53;;;;;;;13.98;8.28;;;;;;;-5.72;74.76;100147.02;1754383;81;21125;-62
2021/03/07 02:13:31;;;;;;;9.80;6.78;;;;;;;-5.72;74.74;100141.55;1726900;81;21375;-62
2021/03/07 02:16:06;;;;;;;10.95;7.47;;;;;;;-5.74;74.80;100138.50;1754377;81;21073;-62
2021/03/07 02:18:38;;;;;;;11.93;7.78;;;;;;;-5.74;75.01;100122.89;1754462;81;21561;-62
2021/03/07 02:21:10;;;;;;;13.10;8.98;;;;;;;-5.73;75.02;100120.82;1754395;81;21497;-62
2021/03/07 02:24:04;;;;;;;17.90;12.63;;;;;;;-5.71;75.18;100117.94;1754555;81;21081;-62
2021/03/07 02:26:41;;;;;;;21.42;13.85;;;;;;;-5.69;75.19;100122.66;1754463;81;21437;-63
2021/03/07 02:29:09;;;;;;;17.02;12.18;;;;;;;-5.68;75.31;100114.24;1754449;81;21585;-62
2021/03/07 02:31:45;;;;;;;14.85;10.30;;;;;;;-5.68;75.37;100118.05;1754465;81;21053;-62
2021/03/07 02:34:18;;;;;;;12.75;8.05;;;;;;;-5.69;75.49;100107.86;1754177;81;21152;-62
2021/03/07 02:36:53;;;;;;;10.78;7.47;;;;;;;-5.70;75.55;100099.39;1754394;81;21073;-62
2021/03/07 02:39:33;;;;;;;10.38;7.20;;;;;;;-5.71;75.59;100105.27;1756652;81;22323;-61
2021/03/07 02:42:14;;;;;;;12.18;7.95;;;;;;;-5.71;75.66;100103.14;1758063;81;21128;-62
2021/03/07 02:44:51;;;;;;;12.65;8.75;;;;;;;-5.68;75.74;100108.31;1745268;81;21841;-62
2021/03/07 02:47:21;;;;;;;12.30;8.60;;;;;;;-5.66;75.82;100096.56;1758125;81;21164;-62
2021/03/07 02:49:49;;;;;;;11.50;7.58;;;;;;;-5.61;75.71;100095.91;1758160;81;21597;-62
2021/03/07 02:52:17;;;;;;;10.35;7.17;;;;;;;-5.57;75.67;100087.97;1758105;81;21211;-62
2021/03/07 02:54:46;;;;;;;11.38;7.72;;;;;;;-5.55;75.42;100084.69;1758107;81;21553;-62
2021/03/07 02:57:14;;;;;;;12.50;7.67;;;;;;;-5.55;75.36;100074.95;1710519;81;21478;-62
2021/03/07 02:59:42;;;;;;;10.32;7.28;;;;;;;-5.57;75.37;100071.50;1758075;81;21128;-62
2021/03/07 03:02:10;;;;;;;13.30;7.37;;;;;;;-5.59;75.45;100076.52;1758074;81;21565;-62
2021/03/07 03:04:39;;;;;;;10.58;7.33;;;;;;;-5.60;75.55;100075.23;1758082;81;21443;-62
2021/03/07 03:07:07;;;;;;;12.63;7.55;;;;;;;-5.59;75.64;100073.98;1710704;81;21501;-62
2021/03/07 03:09:34;;;;;;;11.55;7.92;;;;;;;-5.58;75.79;100067.24;1758052;81;21092;-62
2021/03/07 03:12:03;;;;;;;12.93;7.30;;;;;;;-5.54;75.81;100058.94;1758057;81;21164;-62
2021/03/07 03:14:31;;;;;;;11.88;8.08;;;;;;;-5.51;75.72;100053.10;1758158;81;21155;-63
2021/03/07 03:17:00;;;;;;;11.93;7.22;;;;;;;-5.52;75.85;100050.97;1758070;81;21384;-62
2021/03/07 03:19:29;;;;;;;11.20;7.28;;;;;;;-5.52;75.88;100044.64;1758093;81;21518;-62
2021/03/07 03:21:57;;;;;;;13.38;7.83;;;;;;;-5.51;76.00;100035.36;1758088;81;21100;-62
2021/03/07 03:24:25;;;;;;;11.53;7.20;;;;;;;-5.50;76.09;100029.08;1758066;81;21061;-62
2021/03/07 03:27:04;;;;;;;11.63;7.37;;;;;;;-5.47;76.16;100026.64;1758096;81;21141;-62
2021/03/07 03:29:32;;;;;;;9.00;6.85;;;;;;;-5.44;76.21;100028.42;1758049;81;21217;-62
2021/03/07 03:32:00;;;;;;;11.55;7.65;;;;;;;-5.41;76.31;100022.18;1758044;81;21573;-62
2021/03/07 03:34:28;;;;;;;11.50;7.95;;;;;;;-5.38;76.27;100023.11;1758133;81;21156;-62
2021/03/07 03:36:56;;;;;;;11.70;6.33;;;;;;;-5.36;76.31;100016.41;1758036;81;21073;-62
2021/03/07 03:39:25;;;;;;;10.63;7.30;;;;;;;-5.33;76.26;100018.19;1757919;81;21061;-62
2021/03/07 03:42:02;;;;;;;11.97;7.12;;;;;;;-5.34;76.23;100005.92;1758121;81;21577;-63
2021/03/07 03:44:34;;;;;;;12.10;7.33;;;;;;;-5.36;76.26;100008.81;1758018;81;21132;-62
2021/03/07 03:47:02;;;;;;;11.38;7.42;;;;;;;-5.39;76.42;99998.98;1758091;81;21123;-62
2021/03/07 03:49:37;;;;;;;8.98;6.35;;;;;;;-5.41;76.59;99997.69;1758093;81;21172;-62
2021/03/07 03:52:06;;;;;;;11.35;6.25;;;;;;;-5.42;76.70;99997.23;1747679;81;21076;-62
2021/03/07 03:54:47;;;;;;;8.80;6.53;;;;;;;-5.43;76.80;99998.05;1758144;81;21526;-63
2021/03/07 03:57:17;;;;;;;8.78;6.87;;;;;;;-5.45;76.86;99993.34;1757486;80;21081;-62
2021/03/07 03:59:45;;;;;;;8.73;6.17;;;;;;;-5.43;77.02;99989.18;1758058;81;21072;-62
2021/03/07 04:02:13;;;;;;;8.03;6.12;;;;;;;-5.44;76.98;99983.66;1758028;81;21112;-62
2021/03/07 04:04:41;;;;;;;12.28;6.45;;;;;;;-5.43;77.09;99974.38;1734498;81;21152;-62
2021/03/07 04:07:09;;;;;;;8.60;6.12;;;;;;;-5.41;77.10;99970.22;1758027;81;22552;-62
2021/03/07 04:09:36;;;;;;;9.60;6.40;;;;;;;-5.41;77.15;99968.54;1757915;81;21085;-62
2021/03/07 04:12:05;;;;;;;8.73;5.75;;;;;;;-5.38;77.17;99963.53;1758034;81;21057;-62
2021/03/07 04:14:32;;;;;;;12.65;6.78;;;;;;;-5.37;77.14;99955.52;1758099;81;21168;-62
2021/03/07 04:17:02;;;;;;;10.30;6.47;;;;;;;-5.36;77.13;99949.64;1757995;81;21132;-63
2021/03/07 04:19:31;;;;;;;9.60;5.85;;;;;;;-5.38;77.21;99949.59;1735108;81;21214;-62
2021/03/07 04:22:01;;;;;;;9.98;6.80;;;;;;;-5.36;77.22;99944.16;1757978;81;21133;-62
2021/03/07 04:24:29;;;;;;;9.50;6.60;;;;;;;-5.33;77.24;99948.47;1758019;81;21172;-62
2021/03/07 04:26:57;;;;;;;10.82;6.62;;;;;;;-5.32;77.21;99938.38;1758010;81;21069;-62
2021/03/07 04:29:25;;;;;;;10.15;6.72;;;;;;;-5.31;77.22;99937.56;1758008;81;21061;-62
2021/03/07 04:31:53;;;;;;;11.22;6.75;;;;;;;-5.30;77.26;99932.95;1758097;81;21601;-62
2021/03/07 04:34:22;;;;;;;11.68;7.28;;;;;;;-5.28;77.24;99936.80;1757990;81;21135;-62
2021/03/07 04:36:51;;;;;;;9.80;6.12;;;;;;;-5.24;77.25;99925.93;1758097;81;21168;-63
2021/03/07 04:39:18;;;;;;;10.25;7.17;;;;;;;-5.24;77.10;99922.13;1757852;81;21485;-62
2021/03/07 04:41:48;;;;;;;11.73;6.20;;;;;;;-5.23;77.14;99925.98;1758041;81;21089;-62
2021/03/07 04:44:17;;;;;;;9.93;6.83;;;;;;;-5.19;77.15;99928.17;1757592;81;21230;-63
2021/03/07 04:46:45;;;;;;;12.00;6.60;;;;;;;-5.15;77.11;99924.91;1757954;81;21077;-62
2021/03/07 04:49:12;;;;;;;9.70;7.05;;;;;;;-5.13;76.99;99924.55;1757960;81;21125;-62
2021/03/07 04:51:40;;;;;;;10.78;6.65;;;;;;;-5.12;76.97;99925.00;1758073;81;21152;-62
2021/03/07 04:54:08;;;;;;;11.85;7.30;;;;;;;-5.12;77.03;99925.00;1758014;81;21501;-62
2021/03/07 04:56:36;;;;;;;12.55;6.92;;;;;;;-5.08;77.06;99917.94;1757898;80;23597;-63
2021/03/07 04:59:03;;;;;;;11.83;6.47;;;;;;;-5.03;76.99;99919.34;1757944;81;21129;-62
2021/03/07 05:01:35;;;;;;;12.55;6.72;;;;;;;-4.97;76.93;99915.27;1758014;81;21124;-62
2021/03/07 05:04:03;;;;;;;12.37;6.90;;;;;;;-4.91;76.74;99917.98;1758065;81;21549;-62
2021/03/07 05:06:38;;;;;;;8.73;6.20;;;;;;;-4.84;76.58;99908.87;1758019;81;21124;-62
2021/03/07 05:09:05;;;;;;;10.13;6.58;;;;;;;-4.78;76.36;99910.28;1757683;81;21601;-64
2021/03/07 05:11:33;;;;;;;9.53;6.47;;;;;;;-4.73;76.14;99909.15;1757926;81;21561;-62
2021/03/07 05:14:02;;;;;;;11.08;6.78;;;;;;;-4.70;76.00;99910.09;1757992;81;21526;-63
2021/03/07 05:16:30;;;;;;;12.93;7.58;;;;;;;-4.66;75.87;99898.34;1758066;81;21573;-63
2021/03/07 05:18:58;;;;;;;12.93;8.13;;;;;;;-4.63;75.74;99899.30;1758030;81;21065;-62
2021/03/07 05:21:26;;;;;;;14.13;8.98;;;;;;;-4.59;75.72;99895.13;1758045;81;21490;-62
2021/03/07 05:23:59;;;;;;;14.00;8.45;;;;;;;-4.53;75.63;99895.30;1758075;81;21152;-63
2021/03/07 05:26:23;;;;;;;13.38;7.05;;;;;;;-4.44;75.46;99895.95;1756858;81;21168;-63
2021/03/07 05:28:52;;;;;;;11.00;6.72;;;;;;;-4.37;75.31;99899.94;1758209;81;21564;-62
2021/03/07 05:31:20;;;;;;;12.40;7.60;;;;;;;-4.29;75.15;99896.33;1758151;81;21121;-62
2021/03/07 05:33:48;;;;;;;13.05;8.75;;;;;;;-4.21;75.01;99891.03;1758218;81;23523;-62
2021/03/07 05:36:16;;;;;;;18.35;14.87;;;;;;;-4.10;74.88;99895.09;1758047;81;21093;-62
2021/03/07 05:38:44;;;;;;;18.05;11.68;;;;;;;-4.01;74.55;99888.97;1758098;81;21592;-62
2021/03/07 05:41:15;;;;;;;13.30;9.88;;;;;;;-3.93;74.25;99890.84;1758119;81;21117;-62
2021/03/07 05:43:43;;;;;;;13.88;8.35;;;;;;;-3.89;74.13;99881.61;1758183;81;21125;-62
2021/03/07 05:46:10;;;;;;;14.95;8.05;;;;;;;-3.84;73.94;99874.96;1758114;81;23531;-62
2021/03/07 05:48:38;;;;;;;12.33;8.25;;;;;;;-3.74;74.01;99885.77;1758071;81;21105;-62
2021/03/07 05:51:11;;;;;;;11.08;8.75;;;;;;;-3.63;73.71;99891.95;1758130;81;21125;-62
2021/03/07 05:53:45;;;;;;;13.00;7.75;;;;;;;-3.53;73.60;99882.83;1755755;81;21080;-63
2021/03/07 05:56:13;;;;;;;10.78;8.18;;;;;;;-3.41;73.12;99883.11;1758232;80;21533;-62
2021/03/07 05:58:41;;;;;;;17.70;12.23;;;;;;;-3.29;72.94;99876.12;1758142;81;21381;-62
2021/03/07 06:01:09;;;;;;;13.45;9.43;;;;;;;-3.20;72.68;99873.78;1758067;81;21159;-63
2021/03/07 06:03:37;;;;;;;14.15;8.85;;;;;;;-3.07;72.15;99869.37;1758118;81;21073;-63
2021/03/07 06:06:06;;;;;;;14.13;8.88;;;;;;;-2.96;72.06;99861.92;1758110;81;21065;-63
2021/03/07 06:08:34;;;;;;;20.32;8.23;;;;;;;-2.84;71.82;99865.99;1758116;81;21057;-63
2021/03/07 06:11:02;;;;;;;11.88;8.30;;;;;;;-2.72;71.52;99855.16;1758112;81;23520;-62
2021/03/07 06:13:39;;;;;;;12.13;7.80;;;;;;;-2.61;71.16;99859.62;1758073;81;21129;-62
2021/03/07 06:16:10;;;;;;;16.35;9.43;;;;;;;-2.47;70.81;99857.30;1758226;81;21517;-62
2021/03/07 06:18:44;;;;;;;13.53;8.53;;;;;;;-2.35;70.45;99860.05;1757903;81;21498;-63
2021/03/07 06:21:35;;;;;;;13.25;7.47;;;;;;;-2.26;69.72;99844.06;1758046;81;21156;-63
2021/03/07 06:24:05;;;;;;;13.62;8.65;;;;;;;-2.22;69.35;99845.83;1758205;81;21390;-64
2021/03/07 06:26:32;;;;;;;12.65;7.83;;;;;;;-2.17;69.16;99843.77;1758126;81;21584;-62
2021/03/07 06:29:12;;;;;;;11.30;8.10;;;;;;;-2.08;68.79;99839.25;1758063;81;21598;-63
2021/03/07 06:31:42;;;;;;;10.75;7.55;;;;;;;-2.04;68.47;99846.53;1758197;81;21640;-63
2021/03/07 06:34:11;;;;;;;13.72;8.48;;;;;;;-1.98;68.49;99841.50;1758116;81;21112;-63
2021/03/07 06:36:39;;;;;;;12.80;7.58;;;;;;;-1.89;68.32;99849.30;1758068;81;21486;-63
2021/03/07 06:39:08;;;;;;;11.88;7.35;;;;;;;-1.80;68.04;99848.16;1757902;81;21080;-63
2021/03/07 06:41:36;;;;;;;18.05;9.08;;;;;;;-1.72;67.43;99841.45;1758211;81;21470;-63
2021/03/07 06:44:15;;;;;;;12.03;7.37;;;;;;;-1.67;67.34;99841.53;1758089;81;21065;-62
2021/03/07 06:46:43;;;;;;;9.23;6.67;;;;;;;-1.61;67.48;99831.41;1758140;81;21189;-65
2021/03/07 06:49:24;;;;;;;11.08;7.92;;;;;;;-1.52;66.94;99835.34;1758137;81;21347;-63
2021/03/07 06:51:52;;;;;;;12.07;7.83;;;;;;;-1.47;66.69;99832.02;1758158;81;21548;-63
2021/03/07 06:54:21;;;;;;;14.13;7.17;;;;;;;-1.39;66.55;99821.89;1758051;81;21156;-63
2021/03/07 06:56:50;;;;;;;10.32;6.70;;;;;;;-1.27;66.49;99816.09;1758033;80;21223;-63
2021/03/07 06:59:19;;;;;;;10.93;7.20;;;;;;;-1.14;66.00;99810.27;1758077;81;21058;-63
2021/03/07 07:01:55;;;;;;;12.85;7.70;;;;;;;-1.07;65.75;99803.13;1758120;81;21208;-62
2021/03/07 07:04:27;;;;;;;10.58;7.58;;;;;;;-1.00;65.71;99792.16;1758054;81;21136;-64
2021/03/07 07:07:08;;;;;;;10.82;7.50;;;;;;;-0.88;65.20;99793.95;1758168;81;21061;-63
2021/03/07 07:09:37;;;;;;;12.78;8.00;;;;;;;-0.81;65.02;99781.70;1758147;81;21144;-63
2021/03/07 07:12:09;;;;;;;12.53;6.97;;;;;;;-0.73;64.69;99780.05;1758062;81;21073;-63
2021/03/07 07:14:42;;;;;;;10.90;7.22;;;;;;;-0.66;64.45;99783.09;1734464;81;21413;-63
2021/03/07 07:17:14;;;;;;;;;;;;;;;-0.57;64.23;99774.22;1760661;81;21176;-63
2021/03/07 07:19:42;;;;;;;8.63;6.42;;;;;;;-0.50;63.66;99759.80;1758096;81;20221;-62
2021/03/07 07:22:13;;;;;;;10.05;7.20;;;;;;;-0.48;63.56;99768.33;1758042;81;21164;-63
2021/03/07 07:24:42;;;;;;;9.18;7.28;;;;;;;-0.48;63.51;99765.36;1758126;81;21585;-65
2021/03/07 07:27:10;;;;;;;12.70;7.50;;;;;;;-0.45;63.87;99764.11;1758070;81;21385;-64
2021/03/07 07:29:39;;;;;;;10.53;6.85;;;;;;;-0.37;63.16;99762.45;1734587;81;21097;-63
2021/03/07 07:32:31;;;;;;;9.55;6.70;;;;;;;-0.36;63.27;99760.33;1758126;81;21474;-64
2021/03/07 07:35:06;;;;;;;12.85;8.13;;;;;;;-0.31;62.85;99755.67;1757785;81;21081;-63
2021/03/07 07:38:00;;;;;;;11.00;6.95;;;;;;;-0.28;62.71;99759.53;1758091;81;21049;-64
2021/03/07 07:40:35;;;;;;;10.03;6.83;;;;;;;-0.21;62.88;99751.07;1756223;81;22167;-65
2021/03/07 07:43:03;;;;;;;9.75;7.10;;;;;;;-0.11;62.54;99751.12;1754244;81;21120;-65
2021/03/07 07:45:31;;;;;;;11.28;7.67;;;;;;;-0.03;62.26;99746.92;1726932;81;21556;-64
2021/03/07 07:47:58;;;;;;;13.32;7.92;;;;;;;0.05;62.00;99744.38;1754284;81;21073;-64
2021/03/07 07:50:35;;;;;;;9.68;7.12;;;;;;;0.11;61.92;99735.89;1754272;81;21085;-64
2021/03/07 07:53:18;;;;;;;12.63;7.95;;;;;;;0.17;61.46;99734.66;1754297;81;21377;-65
2021/03/07 07:55:58;;;;;;;7.95;6.62;;;;;;;0.19;61.79;99723.58;1754429;80;21069;-63
2021/03/07 07:58:43;;;;;;;12.05;7.72;;;;;;;0.19;61.15;99713.77;1754376;81;21416;-63
2021/03/07 08:01:14;;;;;;;10.00;7.17;;;;;;;0.20;61.69;99720.60;1754283;81;21125;-64
2021/03/07 08:03:44;;;;;;;11.03;7.58;;;;;;;0.32;61.41;99718.94;1754310;81;21145;-65
2021/03/07 08:06:14;;;;;;;9.75;6.75;;;;;;;0.36;60.92;99720.23;1754274;81;21377;-63
2021/03/07 08:08:43;;;;;;;11.48;7.72;;;;;;;0.33;61.11;99715.53;1754180;81;21112;-63
2021/03/07 08:11:28;;;;;;;13.08;8.08;;;;;;;0.33;61.17;99704.44;1754247;81;21109;-63
2021/03/07 08:13:59;;;;;;;9.40;6.42;;;;;;;0.37;61.40;99699.77;1754285;81;21072;-63
2021/03/07 08:16:39;;;;;;;9.60;7.08;;;;;;;0.46;61.32;99704.04;1754311;81;21081;-66
2021/03/07 08:19:13;;;;;;;10.32;6.67;;;;;;;0.53;61.38;99693.84;1754310;81;21342;-63
2021/03/07 08:21:56;;;;;;;8.55;7.15;;;;;;;0.61;60.95;99700.23;1754239;81;21128;-62
2021/03/07 08:24:24;;;;;;;;;;;;;;;0.61;60.70;99689.57;1755713;81;21563;-64
2021/03/07 08:26:53;;;;;;;12.07;8.65;;;;;;;0.60;60.87;99687.86;1754262;81;20233;-64
2021/03/07 08:29:41;;;;;;;10.35;7.22;;;;;;;0.62;60.93;99687.86;1754212;81;21148;-64
2021/03/07 08:32:40;;;;;;;10.30;7.53;;;;;;;0.63;60.76;99681.47;1754290;81;21150;-64
2021/03/07 08:35:14;;;;;;;10.18;7.25;;;;;;;0.65;60.84;99665.70;1751778;81;21085;-65
2021/03/07 08:37:43;;;;;;;15.25;7.92;;;;;;;0.63;60.28;99666.54;1754242;81;21280;-64
2021/03/07 08:40:34;;;;;;;10.98;7.70;;;;;;;0.61;61.06;99663.97;1727016;81;21176;-64
2021/03/07 08:43:29;;;;;;;9.70;6.97;;;;;;;0.67;60.98;99669.11;1755690;81;21556;-65
2021/03/07 08:46:12;;;;;;;10.03;7.30;;;;;;;0.73;60.81;99664.86;1755567;81;21450;-65
2021/03/07 08:48:43;;;;;;;10.30;7.45;;;;;;;0.86;60.96;99653.77;1755759;81;21597;-65
2021/03/07 08:51:13;;;;;;;11.93;7.47;;;;;;;0.97;60.32;99664.46;1755807;81;21151;-64
2021/03/07 08:53:42;;;;;;;13.13;7.67;;;;;;;1.03;60.45;99654.19;1755547;81;21128;-64
2021/03/07 08:56:11;;;;;;;10.28;7.47;;;;;;;1.11;59.93;99647.80;1755497;80;21093;-65
2021/03/07 08:58:39;;;;;;;10.72;7.08;;;;;;;1.20;59.93;99646.49;1755665;81;22045;-64
2021/03/07 09:01:07;;;;;;;11.55;7.47;;;;;;;1.30;59.50;99643.08;1755467;81;21105;-65
2021/03/07 09:03:35;;;;;;;10.70;7.58;;;;;;;1.36;59.16;99636.67;1755537;81;21060;-65
2021/03/07 09:06:13;;;;;;;11.55;6.85;;;;;;;1.43;58.52;99634.08;1755531;81;21129;-64
2021/03/07 09:08:43;;;;;;;12.28;8.28;;;;;;;1.50;57.75;99626.81;1731419;81;38273;-66
2021/03/07 09:11:11;;;;;;;11.35;7.12;;;;;;;1.54;58.37;99629.37;1755510;81;22179;-64
2021/03/07 09:13:49;;;;;;;12.58;7.40;;;;;;;1.56;59.03;99628.94;1755503;81;21085;-65
2021/03/07 09:16:17;;;;;;;8.78;6.40;;;;;;;1.64;58.64;99625.91;1755585;81;21061;-64
2021/03/07 09:18:45;;;;;;;9.25;7.00;;;;;;;1.71;57.33;99621.63;1755565;81;21089;-64
2021/03/07 09:21:15;;;;;;;10.55;7.20;;;;;;;1.72;57.05;99627.17;1755056;81;21502;-65
2021/03/07 09:23:49;;;;;;;9.88;7.40;;;;;;;1.73;56.98;99631.45;1755581;81;21506;-64
2021/03/07 09:26:19;;;;;;;8.43;6.78;;;;;;;1.79;57.05;99625.02;1755632;81;21076;-65
2021/03/07 09:28:52;;;;;;;9.93;7.08;;;;;;;1.85;56.92;99618.56;1732457;81;21069;-65
2021/03/07 09:31:33;;;;;;;11.73;6.72;;;;;;;2.00;56.87;99614.64;1755696;81;21172;-64
2021/03/07 09:34:04;;;;;;;8.90;5.58;;;;;;;2.26;56.51;99617.52;1755594;81;21251;-64
2021/03/07 09:36:39;;;;;;;9.38;6.28;;;;;;;2.56;55.52;99616.05;1755541;81;21266;-63
2021/03/07 09:39:09;;;;;;;8.55;6.35;;;;;;;2.77;54.78;99621.47;1755558;81;21085;-63
2021/03/07 09:41:40;;;;;;;10.10;7.20;;;;;;;2.92;54.45;99608.92;1754542;81;21074;-63
2021/03/07 09:44:11;;;;;;;9.50;6.15;;;;;;;3.04;53.98;99601.95;1753664;81;21081;-63
2021/03/07 09:46:46;;;;;;;10.85;6.55;;;;;;;3.10;52.95;99603.19;1754268;81;21160;-63
2021/03/07 09:49:14;;;;;;;10.53;7.35;;;;;;;3.18;53.52;99598.42;1753791;81;21351;-63
2021/03/07 09:51:43;;;;;;;10.32;6.85;;;;;;;3.29;53.22;99593.58;1754115;81;21145;-64
2021/03/07 09:54:15;;;;;;;15.03;7.62;;;;;;;3.36;53.11;99592.66;1754290;81;21513;-65
2021/03/07 09:56:44;;;;;;;8.70;5.75;;;;;;;3.38;52.76;99587.51;1754261;80;21104;-66
2021/03/07 09:59:32;;;;;;;10.30;6.72;;;;;;;3.38;52.79;99592.22;1754295;81;21529;-66
2021/03/07 10:02:04;;;;;;;9.23;6.75;;;;;;;3.40;52.60;99589.59;1754225;81;21436;-66
2021/03/07 10:04:36;;;;;;;;;;;;;;;3.37;52.64;99585.80;1756784;81;21148;-66
2021/03/07 10:07:18;;;;;;;8.70;5.65;;;;;;;3.34;52.76;99573.83;1754224;81;20220;-67
2021/03/07 10:10:03;;;;;;;9.58;5.80;;;;;;;3.33;53.05;99586.69;1754411;81;21506;-66
2021/03/07 10:12:46;;;;;;;10.13;6.90;;;;;;;3.35;52.63;99586.25;1754481;81;21109;-65
2021/03/07 10:15:27;;;;;;;8.05;6.55;;;;;;;3.30;52.74;99585.44;1754527;81;21385;-67
2021/03/07 10:18:00;;;;;;;9.73;6.97;;;;;;;3.34;53.07;99584.55;1754336;81;21077;-65
2021/03/07 10:20:38;;;;;;;7.97;5.33;;;;;;;3.35;53.31;99572.96;1754557;81;21058;-67
2021/03/07 10:23:06;;;;;;;7.20;6.08;;;;;;;3.41;52.38;99573.30;1754362;81;21065;-66
2021/03/07 10:25:35;;;;;;;9.75;7.12;;;;;;;3.43;53.02;99564.70;1754368;81;21533;-66
2021/03/07 10:28:13;;;;;;;7.50;5.25;;;;;;;3.49;53.63;99564.23;1754310;81;21383;-63
2021/03/07 10:30:43;;;;;;;7.87;4.95;;;;;;;3.53;53.18;99550.48;1754263;81;21549;-66
2021/03/07 10:33:27;;;;;;;10.75;6.05;;;;;;;3.54;52.97;99553.03;1754442;81;21569;-63
2021/03/07 10:36:20;;;;;;;8.08;5.45;;;;;;;3.50;53.21;99547.50;1754423;81;21053;-65
2021/03/07 10:38:53;;;;;;;10.15;5.78;;;;;;;3.41;53.47;99542.02;1754525;81;25392;-64
2021/03/07 10:41:30;;;;;;;;;;;;;;;3.38;53.49;99530.95;1758140;81;21381;-66
2021/03/07 10:43:59;;;;;;;7.92;5.30;;;;;;;3.40;53.61;99535.61;1758171;81;20493;-67
2021/03/07 10:46:41;;;;;;;7.10;5.60;;;;;;;3.39;53.58;99529.64;1758189;81;21501;-68
2021/03/07 10:49:11;;;;;;;7.87;5.55;;;;;;;3.39;53.35;99515.50;1755444;81;21120;-68
2021/03/07 10:51:39;;;;;;;7.55;5.40;;;;;;;3.40;52.87;99518.46;1758118;81;21195;-66
2021/03/07 10:54:07;;;;;;;7.28;4.97;;;;;;;3.40;53.45;99505.61;1687130;81;22025;-66
2021/03/07 10:56:40;;;;;;;6.85;5.65;;;;;;;3.47;53.24;99494.82;1757964;80;21093;-66
2021/03/07 10:59:10;;;;;;;8.25;5.95;;;;;;;3.51;52.93;99511.06;1758044;81;21064;-68
2021/03/07 11:01:39;;;;;;;7.17;6.10;;;;;;;3.52;53.47;99507.20;1758097;81;21085;-68
2021/03/07 11:04:08;;;;;;;8.95;5.20;;;;;;;3.58;53.08;99499.41;1758071;81;21073;-66
2021/03/07 11:06:35;;;;;;;9.63;5.75;;;;;;;3.60;52.51;99498.08;1758051;81;21501;-67
2021/03/07 11:09:05;;;;;;;6.97;4.90;;;;;;;3.58;53.41;99491.70;1757999;81;21124;-67
2021/03/07 11:11:34;;;;;;;6.12;5.08;;;;;;;3.62;51.93;99486.91;1758112;81;21534;-68
2021/03/07 11:14:04;;;;;;;10.45;5.72;;;;;;;3.65;52.37;99483.44;1758134;81;21593;-68
2021/03/07 11:16:31;;;;;;;7.60;5.37;;;;;;;3.65;53.08;99471.88;1758025;81;21132;-66
2021/03/07 11:19:01;;;;;;;9.00;5.75;;;;;;;3.71;53.01;99475.22;1755106;81;21226;-67
2021/03/07 11:21:28;;;;;;;8.10;5.28;;;;;;;3.79;53.01;99469.98;1758012;81;21097;-66
2021/03/07 11:23:57;;;;;;;6.25;5.17;;;;;;;3.85;53.18;99463.88;1758058;81;21494;-67
2021/03/07 11:26:25;;;;;;;10.98;5.65;;;;;;;3.90;53.66;99458.23;1758099;81;21509;-66
2021/03/07 11:28:52;;;;;;;6.87;5.40;;;;;;;4.00;53.60;99454.63;1758040;81;21112;-65
2021/03/07 11:31:20;;;;;;;8.70;5.03;;;;;;;4.07;53.55;99457.54;1758007;81;23441;-65
2021/03/07 11:33:47;;;;;;;9.35;6.03;;;;;;;4.13;52.57;99451.02;1758002;81;21109;-66
2021/03/07 11:36:15;;;;;;;10.03;5.80;;;;;;;4.12;53.08;99444.17;1758017;81;21065;-64
2021/03/07 11:38:43;;;;;;;6.40;5.22;;;;;;;4.12;53.38;99435.16;1758006;81;21132;-66
2021/03/07 11:41:11;;;;;;;7.08;4.90;;;;;;;4.07;52.27;99437.80;1757937;81;21129;-65
2021/03/07 11:43:39;;;;;;;6.20;5.53;;;;;;;3.98;52.80;99440.53;1758069;81;21236;-63
2021/03/07 11:46:07;;;;;;;7.05;4.92;;;;;;;3.88;53.03;99433.81;1757960;81;21085;-66
2021/03/07 11:48:35;;;;;;;7.65;5.92;;;;;;;3.83;53.48;99429.59;1758025;81;21082;-66